createdAt,value
2019-02-28T00:00:52.448Z,7.45
2019-02-28T00:03:20.648Z,7.43
2019-02-28T00:05:47.356Z,7.32
2019-02-28T00:08:14.027Z,7.41
2019-02-28T00:10:40.707Z,7.36
2019-02-28T00:13:07.295Z,7.23
2019-02-28T00:15:33.944Z,7.37
2019-02-28T00:18:00.531Z,7.27
2019-02-28T00:20:29.116Z,7.33
2019-02-28T00:22:55.860Z,7.27
2019-02-28T00:25:22.471Z,7.25
2019-02-28T00:27:49.265Z,7.34
2019-02-28T00:30:16.184Z,7.38
2019-02-28T00:32:42.793Z,7.42
2019-02-28T00:35:12.949Z,7.34
2019-02-28T00:37:38.213Z,7.39
2019-02-28T00:40:07.973Z,7.31
2019-02-28T00:42:34.682Z,7.22
2019-02-28T00:45:02.687Z,7.36
2019-02-28T00:47:30.195Z,7.24
2019-02-28T00:49:56.800Z,7.39
2019-02-28T00:52:23.448Z,7.30
2019-02-28T00:55:27.147Z,7.17
2019-02-28T00:57:55.389Z,7.19
2019-02-28T01:00:22.470Z,7.21
2019-02-28T01:02:53.547Z,7.35
2019-02-28T01:05:18.147Z,7.18
2019-02-28T01:07:48.057Z,7.25
2019-02-28T01:11:10.441Z,7.21
2019-02-28T01:13:38.683Z,7.18
2019-02-28T01:16:05.429Z,7.06
2019-02-28T01:18:34.475Z,7.12
2019-02-28T01:21:00.655Z,7.02
2019-02-28T01:23:29.391Z,7.04
2019-02-28T01:25:56.902Z,7.14
2019-02-28T01:28:27.050Z,7.11
2019-02-28T01:31:50.534Z,7.24
2019-02-28T01:34:17.155Z,7.22
2019-02-28T01:36:45.965Z,7.05
2019-02-28T01:39:12.339Z,7.20
2019-02-28T01:41:39.109Z,7.21
2019-02-28T01:44:05.732Z,7.20
2019-02-28T01:46:32.276Z,7.06
2019-02-28T01:48:58.847Z,7.12
2019-02-28T01:51:25.566Z,7.05
2019-02-28T01:53:53.645Z,7.09
2019-02-28T01:56:20.647Z,7.05
2019-02-28T01:58:47.573Z,7.05
2019-02-28T02:01:15.956Z,7.18
2019-02-28T02:03:42.665Z,7.03
2019-02-28T02:06:09.540Z,7.12
2019-02-28T02:09:32.453Z,7.04
2019-02-28T02:11:59.196Z,7.04
2019-02-28T02:14:25.736Z,6.99
2019-02-28T02:16:52.446Z,7.16
2019-02-28T02:19:19.115Z,7.25
2019-02-28T02:21:45.776Z,7.02
2019-02-28T02:24:12.395Z,6.99
2019-02-28T02:26:42.346Z,7.02
2019-02-28T02:29:07.949Z,6.87
2019-02-28T02:31:34.587Z,7.05
2019-02-28T02:34:01.428Z,6.96
2019-02-28T02:36:28.168Z,6.95
2019-02-28T02:38:55.225Z,6.85
2019-02-28T02:41:21.870Z,6.81
2019-02-28T02:43:48.526Z,6.85
2019-02-28T02:46:19.478Z,6.84
2019-02-28T02:49:39.962Z,6.86
2019-02-28T02:52:06.603Z,6.93
2019-02-28T02:54:33.290Z,6.74
2019-02-28T02:56:59.911Z,6.86
2019-02-28T02:59:26.483Z,6.81
2019-02-28T03:01:56.210Z,6.80
2019-02-28T03:04:23.197Z,6.74
2019-02-28T03:06:50.175Z,6.78
2019-02-28T03:09:16.777Z,6.74
2019-02-28T03:11:43.331Z,6.93
2019-02-28T03:14:09.972Z,6.87
2019-02-28T03:16:36.731Z,6.86
2019-02-28T03:19:03.612Z,6.87
2019-02-28T03:21:30.786Z,6.71
2019-02-28T03:23:57.473Z,6.66
2019-02-28T03:26:24.073Z,6.55
2019-02-28T03:28:50.681Z,6.60
2019-02-28T03:32:13.679Z,6.57
2019-02-28T03:34:40.455Z,6.65
2019-02-28T03:37:07.141Z,6.66
2019-02-28T03:39:33.881Z,6.69
2019-02-28T03:42:01.034Z,6.69
2019-02-28T03:44:27.652Z,6.60
2019-02-28T03:46:54.615Z,6.54
2019-02-28T03:49:21.285Z,6.68
2019-02-28T03:51:47.883Z,6.74
2019-02-28T03:54:14.514Z,6.63
2019-02-28T03:56:41.126Z,6.76
2019-02-28T03:59:07.910Z,6.78
2019-02-28T04:01:34.528Z,6.84
2019-02-28T04:04:58.774Z,6.79
2019-02-28T04:07:25.684Z,6.94
2019-02-28T04:09:52.443Z,6.94
2019-02-28T04:12:19.210Z,6.82
2019-02-28T04:14:45.893Z,6.88
2019-02-28T04:17:13.804Z,6.79
2019-02-28T04:19:40.730Z,6.59
2019-02-28T04:22:07.284Z,6.75
2019-02-28T04:24:33.915Z,6.71
2019-02-28T04:27:06.530Z,6.58
2019-02-28T04:29:31.145Z,6.63
2019-02-28T04:31:58.158Z,6.59
2019-02-28T04:34:24.921Z,6.49
2019-02-28T04:36:51.527Z,6.47
2019-02-28T04:40:15.691Z,6.53
2019-02-28T04:42:42.601Z,6.58
2019-02-28T04:45:13.081Z,6.46
2019-02-28T04:47:40.537Z,6.30
2019-02-28T04:51:24.699Z,6.37
2019-02-28T04:53:53.006Z,6.39
2019-02-28T04:56:19.903Z,6.21
2019-02-28T04:58:46.499Z,6.26
2019-02-28T05:01:13.507Z,6.07
2019-02-28T05:03:40.441Z,5.83
2019-02-28T05:06:07.223Z,5.87
2019-02-28T05:08:38.588Z,5.72
2019-02-28T05:11:03.814Z,5.58
2019-02-28T05:13:31.641Z,5.59
2019-02-28T05:15:58.213Z,5.59
2019-02-28T05:18:27.622Z,5.52
2019-02-28T05:20:53.660Z,5.19
2019-02-28T05:23:20.238Z,5.14
2019-02-28T05:25:49.088Z,4.95
2019-02-28T05:28:15.375Z,4.84
2019-02-28T05:30:41.961Z,4.72
2019-02-28T05:33:08.553Z,4.75
2019-02-28T05:35:57.174Z,4.65
2019-02-28T05:38:23.740Z,4.76
2019-02-28T05:40:50.544Z,4.83
2019-02-28T05:43:17.208Z,4.93
2019-02-28T05:45:48.714Z,4.88
2019-02-28T05:48:12.429Z,4.84
2019-02-28T05:50:39.738Z,4.84
2019-02-28T05:53:09.331Z,4.86
2019-02-28T05:55:35.291Z,4.76
2019-02-28T05:58:02.116Z,4.97
2019-02-28T06:00:28.967Z,4.92
2019-02-28T06:02:58.065Z,4.95
2019-02-28T06:05:24.166Z,5.02
2019-02-28T06:07:51.003Z,5.03
2019-02-28T06:10:23.349Z,5.13
2019-02-28T06:12:46.460Z,5.13
2019-02-28T06:15:15.252Z,5.14
2019-02-28T06:18:41.639Z,5.26
2019-02-28T06:21:10.129Z,5.31
2019-02-28T06:23:36.894Z,5.36
2019-02-28T06:26:03.952Z,5.23
2019-02-28T06:28:31.133Z,5.40
2019-02-28T06:31:00.471Z,5.57
2019-02-28T06:33:27.339Z,5.62
2019-02-28T06:35:54.551Z,5.69
2019-02-28T06:38:21.460Z,5.79
2019-02-28T06:40:48.062Z,5.98
2019-02-28T06:43:14.698Z,6.15
2019-02-28T06:45:41.387Z,6.15
2019-02-28T06:48:08.260Z,6.24
2019-02-28T06:50:34.978Z,6.28
2019-02-28T06:53:01.660Z,6.29
2019-02-28T06:55:28.302Z,6.57
2019-02-28T06:57:55.080Z,6.80
2019-02-28T07:00:22.054Z,6.79
2019-02-28T07:02:50.160Z,6.85
2019-02-28T07:05:17.342Z,6.95
2019-02-28T07:07:45.824Z,6.94
2019-02-28T07:10:16.313Z,6.95
2019-02-28T07:37:55.499Z,8.02
2019-02-28T07:40:22.254Z,7.85
2019-02-28T07:42:49.144Z,7.80
2019-02-28T07:45:16.189Z,7.84
2019-02-28T07:47:43.102Z,7.67
2019-02-28T07:50:12.731Z,7.87
2019-02-28T07:52:39.588Z,7.77
2019-02-28T07:55:11.465Z,7.84
2019-02-28T07:57:38.171Z,8.04
2019-02-28T08:00:17.139Z,7.98
2019-02-28T08:02:40.158Z,8.08
2019-02-28T08:05:11.248Z,8.22
2019-02-28T08:07:39.259Z,8.31
2019-02-28T08:10:12.772Z,8.45
2019-02-28T08:12:40.083Z,8.42
2019-02-28T08:15:13.695Z,8.50
2019-02-28T08:17:43.635Z,8.44
2019-02-28T08:20:11.006Z,8.46
2019-02-28T08:22:37.623Z,8.66
2019-02-28T08:25:09.942Z,8.68
2019-02-28T08:27:36.590Z,8.64
2019-02-28T08:30:08.947Z,8.87
2019-02-28T08:32:35.689Z,8.98
2019-02-28T08:35:06.994Z,8.89
2019-02-28T08:37:33.675Z,8.91
2019-02-28T08:40:00.355Z,8.68
2019-02-28T08:42:27.046Z,8.84
2019-02-28T08:44:58.123Z,8.94
2019-02-28T08:47:22.281Z,9.04
2019-02-28T08:49:48.927Z,9.04
2019-02-28T09:10:12.742Z,9.92
2019-02-28T09:12:40.217Z,9.59
2019-02-28T09:15:12.269Z,9.59
2019-02-28T09:17:39.058Z,9.76
2019-02-28T09:20:10.506Z,9.68
2019-02-28T09:22:38.147Z,9.76
2019-02-28T09:25:10.033Z,9.68
2019-02-28T09:27:38.906Z,9.47
2019-02-28T09:30:11.041Z,9.58
2019-02-28T09:32:37.961Z,9.47
2019-02-28T09:35:12.288Z,9.47
2019-02-28T09:37:35.166Z,9.70
2019-02-28T09:40:02.022Z,9.68
2019-02-28T09:42:28.849Z,9.63
2019-02-28T09:44:55.632Z,9.54
2019-02-28T09:47:26.315Z,9.69
2019-02-28T09:49:51.727Z,9.61
2019-02-28T09:52:18.330Z,9.71
2019-02-28T09:54:45.087Z,9.60
2019-02-28T09:57:11.803Z,10.00
2019-02-28T09:59:38.674Z,10.03
2019-02-28T10:02:09.390Z,9.97
2019-02-28T10:04:36.964Z,9.94
2019-02-28T10:07:03.829Z,10.21
2019-02-28T10:09:30.713Z,10.13
2019-02-28T10:11:57.402Z,10.12
2019-02-28T10:14:25.673Z,10.41
2019-02-28T10:16:53.378Z,10.39
2019-02-28T10:19:20.121Z,10.44
2019-02-28T10:21:51.894Z,10.44
2019-02-28T10:24:15.223Z,10.52
2019-02-28T10:26:41.832Z,10.48
2019-02-28T10:29:09.552Z,10.43
2019-02-28T10:31:38.444Z,10.62
2019-02-28T10:34:06.977Z,10.75
2019-02-28T10:36:33.751Z,10.62
2019-02-28T10:39:00.483Z,10.78
2019-02-28T10:41:28.002Z,10.61
2019-02-28T10:43:56.067Z,10.82
2019-02-28T10:46:22.765Z,10.88
2019-02-28T10:48:51.054Z,10.96
2019-02-28T10:51:18.040Z,11.08
2019-02-28T10:53:44.698Z,11.40
2019-02-28T10:56:12.057Z,11.49
2019-02-28T10:58:38.682Z,11.60
2019-02-28T11:01:08.942Z,11.64
2019-02-28T11:03:36.167Z,11.65
2019-02-28T11:06:02.974Z,11.93
2019-02-28T11:08:29.625Z,11.71
2019-02-28T11:10:57.603Z,11.55
2019-02-28T11:13:24.483Z,11.31
2019-02-28T11:27:11.308Z,12.18
2019-02-28T11:29:38.167Z,11.84
2019-02-28T11:32:04.939Z,11.71
2019-02-28T11:34:31.777Z,11.83
2019-02-28T11:36:58.594Z,11.87
2019-02-28T11:39:27.527Z,11.94
2019-02-28T11:41:54.180Z,11.88
2019-02-28T11:44:22.426Z,11.88
2019-02-28T11:46:49.096Z,12.09
2019-02-28T11:49:15.862Z,11.97
2019-02-28T11:51:42.627Z,11.68
2019-02-28T11:54:12.275Z,11.75
2019-02-28T11:56:38.267Z,11.67
2019-02-28T11:59:04.998Z,11.62
2019-02-28T12:01:31.925Z,11.45
2019-02-28T12:03:58.682Z,11.27
2019-02-28T12:06:25.762Z,11.34
2019-02-28T12:08:53.556Z,11.39
2019-02-28T12:11:20.314Z,11.38
2019-02-28T12:13:47.058Z,11.41
2019-02-28T12:16:16.226Z,11.57
2019-02-28T12:18:42.329Z,11.43
2019-02-28T12:21:09.080Z,11.34
2019-02-28T12:23:35.716Z,11.31
2019-02-28T12:26:02.619Z,11.27
2019-02-28T12:28:29.452Z,11.45
2019-02-28T12:30:57.272Z,11.67
2019-02-28T12:33:24.729Z,11.43
2019-02-28T12:35:51.537Z,11.27
2019-02-28T12:38:18.369Z,11.52
2019-02-28T12:40:45.738Z,11.28
2019-02-28T12:43:14.032Z,11.17
2019-02-28T12:45:46.982Z,11.43
2019-02-28T12:48:13.908Z,11.39
2019-02-28T12:50:41.662Z,11.40
2019-02-28T12:53:08.462Z,11.55
2019-02-28T12:55:35.476Z,11.77
2019-02-28T12:58:04.082Z,11.37
2019-02-28T13:00:36.448Z,11.26
2019-02-28T13:03:03.590Z,11.21
2019-02-28T13:05:31.257Z,11.09
2019-02-28T13:07:58.283Z,11.08
2019-02-28T13:10:27.992Z,11.19
2019-02-28T13:13:05.325Z,11.17
2019-02-28T13:15:23.740Z,11.17
2019-02-28T13:17:50.725Z,11.04
2019-02-28T13:20:22.592Z,11.09
2019-02-28T13:22:49.329Z,11.09
2019-02-28T13:25:19.422Z,11.27
2019-02-28T13:27:46.156Z,11.23
2019-02-28T13:30:18.227Z,11.28
2019-02-28T13:32:45.246Z,11.25
2019-02-28T13:35:17.004Z,11.37
2019-02-28T13:37:44.810Z,11.01
2019-02-28T13:40:14.269Z,11.12
2019-02-28T13:42:42.318Z,11.01
2019-02-28T13:45:22.184Z,11.16
2019-02-28T13:47:46.473Z,11.30
2019-02-28T13:50:18.037Z,11.16
2019-02-28T13:52:44.863Z,10.97
2019-02-28T13:55:14.343Z,10.95
2019-02-28T13:57:43.713Z,11.13
2019-02-28T14:00:18.426Z,11.16
2019-02-28T14:02:45.549Z,10.80
2019-02-28T14:05:13.432Z,11.01
2019-02-28T14:07:40.379Z,11.04
2019-02-28T14:10:11.711Z,11.05
2019-02-28T14:12:38.480Z,11.06
2019-02-28T14:15:10.282Z,11.09
2019-02-28T14:17:37.077Z,11.00
2019-02-28T14:20:08.845Z,11.09
2019-02-28T14:22:35.633Z,10.82
2019-02-28T14:25:06.148Z,10.98
2019-02-28T14:27:31.943Z,10.88
2019-02-28T14:29:58.696Z,10.76
2019-02-28T14:32:25.232Z,10.59
2019-02-28T14:34:51.987Z,10.78
2019-02-28T14:37:19.576Z,10.73
2019-02-28T14:39:47.301Z,10.83
2019-02-28T14:42:14.020Z,10.93
2019-02-28T14:44:40.621Z,10.81
2019-02-28T14:47:07.379Z,10.85
2019-02-28T14:49:34.181Z,10.98
2019-02-28T14:52:03.623Z,11.04
2019-02-28T14:54:29.566Z,10.90
2019-02-28T14:56:56.181Z,10.79
2019-02-28T14:59:22.944Z,10.86
2019-02-28T15:01:53.057Z,10.84
2019-02-28T15:04:18.251Z,10.53
2019-02-28T15:06:45.046Z,10.94
2019-02-28T15:09:14.788Z,10.93
2019-02-28T15:11:43.621Z,10.66
2019-02-28T15:14:10.931Z,10.83
2019-02-28T15:16:37.735Z,10.65
2019-02-28T15:19:05.827Z,10.45
2019-02-28T15:21:33.086Z,10.32
2019-02-28T15:23:59.666Z,10.42
2019-02-28T15:26:26.638Z,10.44
2019-02-28T15:28:55.125Z,10.27
2019-02-28T15:31:21.802Z,10.36
2019-02-28T15:33:48.550Z,10.29
2019-02-28T15:36:15.211Z,10.08
2019-02-28T15:38:44.744Z,10.20
2019-02-28T15:41:14.120Z,10.06
2019-02-28T15:43:47.042Z,9.86
2019-02-28T15:46:13.877Z,9.79
2019-02-28T15:48:40.526Z,9.74
2019-02-28T15:51:07.454Z,9.80
2019-02-28T15:53:34.222Z,9.80
2019-02-28T15:56:01.184Z,9.73
2019-02-28T15:58:27.806Z,9.62
2019-02-28T16:00:56.582Z,9.70
2019-02-28T16:03:23.252Z,9.71
2019-02-28T16:05:50.102Z,9.46
2019-02-28T16:08:16.828Z,9.50
2019-02-28T16:10:52.850Z,9.58
2019-02-28T16:13:12.343Z,9.58
2019-02-28T16:15:43.287Z,9.28
2019-02-28T16:18:12.066Z,9.33
2019-02-28T16:20:38.362Z,9.35
2019-02-28T16:23:08.636Z,9.40
2019-02-28T16:25:37.476Z,9.35
2019-02-28T16:28:07.721Z,9.29
2019-02-28T16:30:37.898Z,9.29
2019-02-28T16:33:04.894Z,9.14
2019-02-28T16:35:31.484Z,9.01
2019-02-28T16:37:58.291Z,8.95
2019-02-28T16:40:30.126Z,8.98
2019-02-28T16:42:56.996Z,9.01
2019-02-28T16:45:29.717Z,8.97
2019-02-28T16:47:59.543Z,9.01
2019-02-28T16:50:26.906Z,8.92
2019-02-28T16:52:53.507Z,8.81
2019-02-28T16:55:20.203Z,8.89
2019-02-28T16:57:47.844Z,8.99
2019-02-28T17:00:16.599Z,8.92
2019-02-28T17:02:43.509Z,8.59
2019-02-28T17:05:11.120Z,8.60
2019-02-28T17:07:40.505Z,8.68
2019-02-28T17:10:11.801Z,8.67
2019-02-28T17:12:40.741Z,8.69
2019-02-28T17:15:12.766Z,8.52
2019-02-28T17:17:43.497Z,8.53
2019-02-28T17:20:10.490Z,8.42
2019-02-28T17:22:37.417Z,8.49
2019-02-28T17:25:06.048Z,8.43
2019-02-28T17:27:34.829Z,8.35
2019-02-28T17:30:03.554Z,8.31
2019-02-28T17:32:32.170Z,8.32
2019-02-28T17:34:59.646Z,8.31
2019-02-28T17:37:27.063Z,8.22
2019-02-28T17:39:53.754Z,8.10
2019-02-28T17:42:21.529Z,8.16
2019-02-28T17:44:53.819Z,8.23
2019-02-28T17:47:26.185Z,8.15
2019-02-28T17:50:00.017Z,8.19
2019-02-28T17:52:34.463Z,8.12
2019-02-28T17:55:07.158Z,8.10
2019-02-28T17:57:41.612Z,8.05
2019-02-28T18:00:12.965Z,8.08
2019-02-28T18:02:47.762Z,8.10
2019-02-28T18:05:17.332Z,7.99
2019-02-28T18:07:49.788Z,7.98
2019-02-28T18:10:20.989Z,7.87
2019-02-28T18:12:52.755Z,7.93
2019-02-28T18:15:25.055Z,7.93
2019-02-28T18:17:57.542Z,7.64
2019-02-28T18:20:32.154Z,7.67
2019-02-28T18:23:02.516Z,7.84
2019-02-28T18:25:33.125Z,7.93
2019-02-28T18:28:03.668Z,7.73
2019-02-28T18:30:36.146Z,7.70
2019-02-28T18:33:03.394Z,7.53
2019-02-28T18:35:32.595Z,7.47
2019-02-28T18:38:02.466Z,7.43
2019-02-28T18:40:28.731Z,7.53
2019-02-28T18:42:57.588Z,7.39
2019-02-28T18:45:24.468Z,7.34
2019-02-28T18:47:51.263Z,7.42
2019-02-28T18:50:18.011Z,7.35
2019-02-28T18:52:44.935Z,7.14
2019-02-28T18:55:12.423Z,7.23
2019-02-28T18:57:39.242Z,7.13
2019-02-28T19:01:02.433Z,7.06
2019-02-28T19:03:29.367Z,6.95
2019-02-28T19:05:56.179Z,7.13
2019-02-28T19:08:22.855Z,7.08
2019-02-28T19:10:54.959Z,6.85
2019-02-28T19:13:22.120Z,7.14
2019-02-28T19:15:48.933Z,7.20
2019-02-28T19:18:16.927Z,7.09
2019-02-28T19:20:43.782Z,7.07
2019-02-28T19:23:10.524Z,7.08
2019-02-28T19:25:37.157Z,7.11
2019-02-28T19:28:04.024Z,6.95
2019-02-28T19:30:30.743Z,6.89
2019-02-28T19:32:57.489Z,6.76
2019-02-28T19:35:24.202Z,6.54
2019-02-28T19:38:47.477Z,6.62
2019-02-28T19:41:14.217Z,6.46
2019-02-28T19:43:41.114Z,6.51
2019-02-28T19:46:07.935Z,6.29
2019-02-28T19:48:35.768Z,6.26
2019-02-28T19:51:03.062Z,6.06
2019-02-28T19:53:29.711Z,6.15
2019-02-28T19:55:56.859Z,6.12
2019-02-28T19:58:23.549Z,6.27
2019-02-28T20:00:51.964Z,6.11
2019-02-28T20:03:19.164Z,5.90
2019-02-28T20:05:46.085Z,6.03
2019-02-28T20:08:12.797Z,6.00
2019-02-28T20:10:39.391Z,6.22
2019-02-28T20:13:06.410Z,6.20
2019-02-28T20:15:36.478Z,6.25
2019-02-28T20:18:59.527Z,5.88
2019-02-28T20:21:27.436Z,6.09
2019-02-28T20:23:54.472Z,6.08
2019-02-28T20:26:21.486Z,5.97
2019-02-28T20:28:48.397Z,6.08
2019-02-28T20:31:15.688Z,5.88
2019-02-28T20:33:42.552Z,6.01
2019-02-28T20:36:09.656Z,6.11
2019-02-28T20:38:37.255Z,6.08
2019-02-28T20:41:04.282Z,5.98
2019-02-28T20:43:31.008Z,5.94
2019-02-28T20:45:58.148Z,5.93
2019-02-28T20:49:40.271Z,5.93
2019-02-28T20:52:07.254Z,5.83
2019-02-28T20:54:34.509Z,5.90
2019-02-28T20:57:01.302Z,5.86
2019-02-28T20:59:31.061Z,5.89
2019-02-28T21:01:58.021Z,5.60
2019-02-28T21:04:24.904Z,5.77
2019-02-28T21:06:53.157Z,5.86
2019-02-28T21:09:23.736Z,5.82
2019-02-28T21:11:50.792Z,5.67
2019-02-28T21:14:18.383Z,5.47
2019-02-28T21:16:46.759Z,5.63
2019-02-28T21:19:13.530Z,5.42
2019-02-28T21:21:40.258Z,5.36
2019-02-28T21:24:07.056Z,5.35
2019-02-28T21:26:33.987Z,5.28
2019-02-28T21:29:01.263Z,5.27
2019-02-28T21:31:28.154Z,5.15
2019-02-28T21:33:54.909Z,5.14
2019-02-28T21:36:21.991Z,5.15
2019-02-28T21:38:49.063Z,5.18
2019-02-28T21:41:16.717Z,5.33
2019-02-28T21:43:43.895Z,5.41
2019-02-28T21:46:10.741Z,5.23
2019-02-28T21:48:37.440Z,4.93
2019-02-28T21:51:04.394Z,5.12
2019-02-28T21:53:31.874Z,4.95
2019-02-28T21:55:59.221Z,5.06
2019-02-28T21:58:26.612Z,5.06
2019-02-28T22:00:54.164Z,5.04
2019-02-28T22:03:21.149Z,5.08
2019-02-28T22:05:49.020Z,5.04
2019-02-28T22:08:18.736Z,5.05
2019-02-28T22:10:45.524Z,4.92
2019-02-28T22:13:12.127Z,4.86
2019-02-28T22:15:38.835Z,4.76
2019-02-28T22:18:05.577Z,4.82
2019-02-28T22:20:32.758Z,4.56
2019-02-28T22:23:56.102Z,4.51
2019-02-28T22:26:22.907Z,4.53
2019-02-28T22:28:49.532Z,4.46
2019-02-28T22:31:25.583Z,4.53
2019-02-28T22:33:54.170Z,4.53
2019-02-28T22:36:22.807Z,4.54
2019-02-28T22:38:49.484Z,4.40
2019-02-28T22:41:16.284Z,4.32
2019-02-28T22:43:43.007Z,4.37
2019-02-28T22:46:09.807Z,4.55
2019-02-28T22:48:36.450Z,4.51
2019-02-28T22:51:03.591Z,4.52
2019-02-28T22:53:33.288Z,4.55
2019-02-28T22:56:00.032Z,4.37
2019-02-28T22:58:26.813Z,4.31
2019-02-28T23:01:01.036Z,4.27
2019-02-28T23:03:32.254Z,4.25
2019-02-28T23:05:59.333Z,4.32
2019-02-28T23:08:26.139Z,4.24
2019-02-28T23:10:53.083Z,4.14
2019-02-28T23:13:19.926Z,3.99
2019-02-28T23:15:46.555Z,4.18
2019-02-28T23:18:13.223Z,4.21
2019-02-28T23:20:39.838Z,4.18
2019-02-28T23:23:06.649Z,4.30
2019-02-28T23:25:33.223Z,4.19
2019-02-28T23:28:05.622Z,4.20
2019-02-28T23:30:38.061Z,4.18
2019-02-28T23:33:04.973Z,3.96
2019-02-28T23:35:33.882Z,4.14
2019-02-28T23:38:00.980Z,4.19
2019-02-28T23:40:27.849Z,4.14
2019-02-28T23:42:54.625Z,4.03
2019-02-28T23:45:21.400Z,4.01
2019-02-28T23:47:47.965Z,4.13
2019-02-28T23:50:14.675Z,4.21
2019-02-28T23:52:41.385Z,4.22
2019-02-28T23:55:08.750Z,4.04
2019-02-28T23:57:35.352Z,4.02
